createdAt,value
2022-12-15T00:02:04.110Z,-8.92
2022-12-15T00:04:53.913Z,-8.78
2022-12-15T00:07:44.091Z,-8.72
2022-12-15T00:10:34.203Z,-8.87
2022-12-15T00:13:32.363Z,-8.64
2022-12-15T00:16:23.981Z,-8.63
2022-12-15T00:19:13.783Z,-8.51
2022-12-15T00:22:03.483Z,-8.80
2022-12-15T00:24:53.301Z,-8.42
2022-12-15T00:27:43.395Z,-8.21
2022-12-15T00:30:33.245Z,-8.21
2022-12-15T00:33:30.866Z,-8.10
2022-12-15T00:36:21.283Z,-8.09
2022-12-15T00:38:52.594Z,-7.86
2022-12-15T00:41:23.881Z,-7.79
2022-12-15T00:43:55.147Z,-7.79
2022-12-15T00:46:44.943Z,-7.61
2022-12-15T00:49:35.111Z,-7.55
2022-12-15T00:52:25.100Z,-7.41
2022-12-15T00:55:15.380Z,-7.31
2022-12-15T00:58:05.090Z,-7.20
2022-12-15T01:00:54.936Z,-7.14
2022-12-15T01:03:45.222Z,-7.08
2022-12-15T01:06:37.144Z,-7.00
2022-12-15T01:09:29.220Z,-6.95
2022-12-15T01:12:19.061Z,-6.92
2022-12-15T01:15:08.849Z,-6.89
2022-12-15T01:17:58.831Z,-6.84
2022-12-15T01:20:34.394Z,-7.48
2022-12-15T01:23:05.811Z,-7.13
2022-12-15T01:25:38.301Z,-7.01
2022-12-15T01:28:09.576Z,-6.93
2022-12-15T01:30:40.826Z,-7.06
2022-12-15T01:33:14.192Z,-7.03
2022-12-15T01:35:45.766Z,-7.11
2022-12-15T01:38:17.052Z,-7.13
2022-12-15T01:40:57.968Z,-7.18
2022-12-15T01:43:33.183Z,-7.25
2022-12-15T01:46:22.068Z,-7.43
2022-12-15T01:49:14.532Z,-7.35
2022-12-15T01:51:49.949Z,-7.40
2022-12-15T01:54:53.919Z,-7.45
2022-12-15T01:57:28.176Z,-7.47
2022-12-15T02:00:03.293Z,-7.52
2022-12-15T02:02:40.421Z,-7.78
2022-12-15T02:05:11.814Z,-7.61
2022-12-15T02:07:43.197Z,-7.67
2022-12-15T02:10:14.607Z,-7.69
2022-12-15T02:13:08.957Z,-7.73
2022-12-15T02:15:51.044Z,-7.83
2022-12-15T02:18:32.278Z,-7.87
2022-12-15T02:21:14.011Z,-7.84
2022-12-15T02:24:19.072Z,-7.77
2022-12-15T02:27:13.242Z,-7.86
2022-12-15T02:30:06.993Z,-7.76
2022-12-15T02:32:54.672Z,-7.95
2022-12-15T02:35:55.293Z,-7.77
2022-12-15T02:38:36.895Z,-7.86
2022-12-15T02:41:40.509Z,-7.80
2022-12-15T02:44:18.078Z,-7.94
2022-12-15T02:47:17.732Z,-7.77
2022-12-15T02:50:15.559Z,-7.77
2022-12-15T02:53:20.974Z,-7.73
2022-12-15T02:56:14.159Z,-7.65
2022-12-15T02:58:59.991Z,-7.79
2022-12-15T03:01:40.014Z,-7.71
2022-12-15T03:04:12.919Z,-7.74
2022-12-15T03:06:44.239Z,-7.68
2022-12-15T03:09:15.500Z,-7.73
2022-12-15T03:11:46.848Z,-7.69
2022-12-15T03:14:18.366Z,-7.70
2022-12-15T03:16:49.760Z,-7.72
2022-12-15T03:19:21.728Z,-7.76
2022-12-15T03:21:53.131Z,-7.95
2022-12-15T03:24:24.478Z,-7.83
2022-12-15T03:26:56.645Z,-7.82
2022-12-15T03:29:27.972Z,-7.92
2022-12-15T03:31:59.293Z,-7.80
2022-12-15T03:34:30.700Z,-7.79
2022-12-15T03:37:01.976Z,-7.94
2022-12-15T03:39:33.299Z,-7.85
2022-12-15T03:42:04.793Z,-7.86
2022-12-15T03:44:36.040Z,-7.65
2022-12-15T03:47:07.335Z,-7.61
2022-12-15T03:49:38.604Z,-7.77
2022-12-15T03:52:09.872Z,-7.77
2022-12-15T03:54:41.126Z,-7.63
2022-12-15T03:57:12.397Z,-7.62
2022-12-15T03:59:43.741Z,-7.73
2022-12-15T04:02:15.206Z,-7.73
2022-12-15T04:04:46.899Z,-7.77
2022-12-15T04:07:18.182Z,-7.68
2022-12-15T04:09:49.487Z,-7.77
2022-12-15T04:12:20.847Z,-7.68
2022-12-15T04:14:53.953Z,-7.88
2022-12-15T04:17:25.228Z,-7.77
2022-12-15T04:20:11.654Z,-7.75
2022-12-15T04:22:45.999Z,-7.75
2022-12-15T04:25:37.689Z,-7.55
2022-12-15T04:28:29.668Z,-7.50
2022-12-15T04:31:26.067Z,-7.41
2022-12-15T04:34:19.521Z,-7.36
2022-12-15T04:37:12.337Z,-7.42
2022-12-15T04:40:08.640Z,-7.31
2022-12-15T04:43:03.864Z,-7.30
2022-12-15T04:45:53.722Z,-7.32
2022-12-15T04:48:43.720Z,-7.27
2022-12-15T04:51:33.768Z,-7.37
2022-12-15T04:54:34.963Z,-7.23
2022-12-15T04:57:24.974Z,-7.36
2022-12-15T05:00:14.577Z,-7.28
2022-12-15T05:03:04.400Z,-7.31
2022-12-15T05:05:54.291Z,-7.31
2022-12-15T05:08:44.351Z,-7.34
2022-12-15T05:11:34.495Z,-7.46
2022-12-15T05:14:24.571Z,-7.37
2022-12-15T05:17:14.239Z,-7.36
2022-12-15T05:20:04.268Z,-7.36
2022-12-15T05:22:54.079Z,-7.35
2022-12-15T05:25:44.243Z,-7.33
2022-12-15T05:28:34.137Z,-7.32
2022-12-15T05:31:25.759Z,-7.25
2022-12-15T05:34:04.694Z,-7.21
2022-12-15T05:36:37.959Z,-7.29
2022-12-15T05:39:09.243Z,-7.18
2022-12-15T05:41:40.601Z,-7.21
2022-12-15T05:44:14.315Z,-7.28
2022-12-15T05:46:46.187Z,-7.14
2022-12-15T05:49:18.297Z,-7.11
2022-12-15T05:51:49.839Z,-7.07
2022-12-15T05:54:21.104Z,-7.06
2022-12-15T05:56:52.837Z,-7.06
2022-12-15T05:59:24.229Z,-7.06
2022-12-15T06:01:55.561Z,-7.06
2022-12-15T06:04:26.974Z,-7.28
2022-12-15T06:06:58.371Z,-7.17
2022-12-15T06:09:29.757Z,-7.15
2022-12-15T06:12:01.096Z,-7.11
2022-12-15T06:14:32.440Z,-7.13
2022-12-15T06:17:03.967Z,-7.19
2022-12-15T06:19:35.346Z,-7.12
2022-12-15T06:22:06.666Z,-7.15
2022-12-15T06:24:38.440Z,-7.12
2022-12-15T06:27:09.860Z,-7.20
2022-12-15T06:29:41.299Z,-7.27
2022-12-15T06:32:12.770Z,-7.07
2022-12-15T06:34:44.147Z,-7.11
2022-12-15T06:37:15.512Z,-7.08
2022-12-15T06:39:46.829Z,-7.11
2022-12-15T06:42:18.183Z,-7.11
2022-12-15T06:44:50.043Z,-7.04
2022-12-15T06:47:21.666Z,-7.04
2022-12-15T06:49:52.926Z,-7.02
2022-12-15T06:52:24.177Z,-7.06
2022-12-15T06:54:55.794Z,-6.96
2022-12-15T06:57:27.094Z,-6.95
2022-12-15T06:59:58.510Z,-7.03
2022-12-15T07:02:32.621Z,-6.86
2022-12-15T07:05:04.297Z,-6.83
2022-12-15T07:07:35.598Z,-6.87
2022-12-15T07:10:08.394Z,-6.93
2022-12-15T07:12:39.676Z,-6.85
2022-12-15T07:15:11.397Z,-6.92
2022-12-15T07:17:42.925Z,-6.74
2022-12-15T07:20:14.313Z,-6.87
2022-12-15T07:22:50.416Z,-6.83
2022-12-15T07:25:22.286Z,-6.73
2022-12-15T07:27:53.609Z,-7.01
2022-12-15T07:30:24.983Z,-6.79
2022-12-15T07:32:56.379Z,-6.74
2022-12-15T07:35:27.680Z,-6.63
2022-12-15T07:38:00.168Z,-6.70
2022-12-15T07:40:31.468Z,-6.58
2022-12-15T07:43:02.832Z,-6.56
2022-12-15T07:45:34.237Z,-6.60
2022-12-15T07:48:05.844Z,-6.46
2022-12-15T07:50:39.764Z,-6.51
2022-12-15T07:53:11.093Z,-6.39
2022-12-15T07:56:05.438Z,-6.34
2022-12-15T07:58:33.826Z,-6.42
2022-12-15T08:01:08.012Z,-6.24
2022-12-15T08:03:40.620Z,-6.38
2022-12-15T08:06:14.773Z,-6.24
2022-12-15T08:08:50.463Z,-6.23
2022-12-15T08:11:22.894Z,-6.13
2022-12-15T08:14:03.582Z,-6.16
2022-12-15T08:16:36.583Z,-6.13
2022-12-15T08:19:12.636Z,-5.97
2022-12-15T08:21:48.461Z,-6.03
2022-12-15T08:24:19.772Z,-5.82
2022-12-15T08:26:51.084Z,-5.74
2022-12-15T08:29:50.266Z,-5.64
2022-12-15T08:32:14.361Z,-5.54
2022-12-15T08:34:47.640Z,-5.64
2022-12-15T08:37:18.981Z,-5.39
2022-12-15T08:39:50.396Z,-5.28
2022-12-15T08:42:21.677Z,-5.21
2022-12-15T08:44:53.028Z,-5.29
2022-12-15T08:47:24.307Z,-5.20
2022-12-15T08:49:55.672Z,-5.15
2022-12-15T08:52:27.005Z,-4.87
2022-12-15T08:54:58.362Z,-4.79
2022-12-15T08:57:29.732Z,-4.60
2022-12-15T09:00:01.037Z,-4.29
2022-12-15T09:02:32.405Z,-4.05
2022-12-15T09:05:06.171Z,-3.80
2022-12-15T09:07:37.582Z,-3.69
2022-12-15T09:10:09.036Z,-3.49
2022-12-15T09:12:40.305Z,-3.34
2022-12-15T09:15:11.682Z,-3.16
2022-12-15T09:17:43.695Z,-3.10
2022-12-15T09:20:17.844Z,-2.89
2022-12-15T09:22:50.373Z,-2.64
2022-12-15T09:25:21.863Z,-2.86
2022-12-15T09:27:53.234Z,-2.20
2022-12-15T09:30:24.597Z,-2.17
2022-12-15T09:32:56.108Z,-2.18
2022-12-15T09:35:28.228Z,-2.11
2022-12-15T09:37:59.660Z,-1.99
2022-12-15T09:40:31.081Z,-1.99
2022-12-15T09:43:32.846Z,-2.04
2022-12-15T09:46:06.449Z,-1.85
2022-12-15T09:48:41.620Z,-1.89
2022-12-15T09:51:18.201Z,-1.86
2022-12-15T09:53:57.311Z,-1.75
2022-12-15T09:56:49.933Z,-1.69
2022-12-15T09:59:28.231Z,-1.56
2022-12-15T10:02:18.443Z,-1.41
2022-12-15T10:05:09.756Z,-1.11
2022-12-15T10:07:46.426Z,-0.85
2022-12-15T10:10:47.186Z,-0.68
2022-12-15T10:13:24.673Z,-0.71
2022-12-15T10:16:16.145Z,-0.69
2022-12-15T10:19:01.916Z,-0.63
2022-12-15T10:21:34.432Z,-0.52
2022-12-15T10:24:37.333Z,-0.55
2022-12-15T10:27:30.938Z,-0.41
2022-12-15T10:30:05.824Z,-0.36
2022-12-15T10:32:56.597Z,-0.22
2022-12-15T10:35:34.485Z,-0.19
2022-12-15T10:38:13.478Z,-0.06
2022-12-15T10:43:46.903Z,0.07
2022-12-15T10:46:21.931Z,0.12
2022-12-15T10:48:59.457Z,0.18
2022-12-15T10:51:36.880Z,0.23
2022-12-15T10:54:09.496Z,0.30
2022-12-15T10:56:55.077Z,0.21
2022-12-15T10:59:33.544Z,0.37
2022-12-15T11:02:34.038Z,0.17
2022-12-15T11:05:18.278Z,0.36
2022-12-15T11:07:52.638Z,0.50
2022-12-15T11:10:28.548Z,0.55
2022-12-15T11:13:21.249Z,0.63
2022-12-15T11:15:55.081Z,0.67
2022-12-15T11:18:42.585Z,0.39
2022-12-15T11:21:27.908Z,0.70
2022-12-15T11:24:18.236Z,0.67
2022-12-15T11:27:08.834Z,0.83
2022-12-15T11:29:51.651Z,0.86
2022-12-15T11:32:27.081Z,0.65
2022-12-15T11:34:58.935Z,0.89
2022-12-15T11:37:36.794Z,0.89
2022-12-15T11:40:23.650Z,0.70
2022-12-15T11:43:29.271Z,0.76
2022-12-15T11:46:20.079Z,0.71
2022-12-15T11:49:06.509Z,0.39
2022-12-15T11:52:03.027Z,0.59
2022-12-15T11:54:43.610Z,0.65
2022-12-15T11:57:44.171Z,0.69
2022-12-15T12:00:19.986Z,0.61
2022-12-15T12:03:04.008Z,0.78
2022-12-15T12:06:02.971Z,0.78
2022-12-15T12:08:53.003Z,0.73
2022-12-15T12:11:32.077Z,0.78
2022-12-15T12:14:37.923Z,0.88
2022-12-15T12:17:38.424Z,0.91
2022-12-15T12:20:41.728Z,1.13
2022-12-15T12:23:22.433Z,1.08
2022-12-15T12:26:03.449Z,1.28
2022-12-15T12:28:48.631Z,1.29
2022-12-15T12:31:56.498Z,1.30
2022-12-15T12:35:31.772Z,1.30
2022-12-15T12:38:04.728Z,1.24
2022-12-15T12:40:56.936Z,1.21
2022-12-15T12:43:42.236Z,1.43
2022-12-15T12:46:23.793Z,1.52
2022-12-15T12:49:13.311Z,1.39
2022-12-15T12:51:51.600Z,1.43
2022-12-15T12:54:41.460Z,1.48
2022-12-15T12:57:12.796Z,1.56
2022-12-15T12:59:49.862Z,1.67
2022-12-15T13:02:21.468Z,1.51
2022-12-15T13:04:59.941Z,1.83
2022-12-15T13:07:38.579Z,1.90
2022-12-15T13:10:21.426Z,1.89
2022-12-15T13:12:59.156Z,2.02
2022-12-15T13:15:30.447Z,2.06
2022-12-15T13:18:16.105Z,2.03
2022-12-15T13:20:50.686Z,1.90
2022-12-15T13:23:22.157Z,1.78
2022-12-15T13:25:56.525Z,1.64
2022-12-15T13:43:27.190Z,0.29
2022-12-15T13:46:01.755Z,0.16
2022-12-15T13:48:51.451Z,0.26
2022-12-15T13:51:31.515Z,0.46
2022-12-15T13:54:17.942Z,0.27
2022-12-15T13:56:54.804Z,0.44
2022-12-15T13:59:40.069Z,0.32
2022-12-15T14:02:25.005Z,0.38
2022-12-15T14:05:17.397Z,0.36
2022-12-15T14:07:56.438Z,0.15
2022-12-15T14:10:41.532Z,0.30
2022-12-15T14:13:26.259Z,0.28
2022-12-15T14:16:15.196Z,0.02
2022-12-15T14:19:10.277Z,0.17
2022-12-15T14:21:51.860Z,0.29
2022-12-15T14:24:38.505Z,0.17
2022-12-15T14:27:22.370Z,0.27
2022-12-15T14:30:19.300Z,0.28
2022-12-15T14:33:12.115Z,0.22
2022-12-15T14:35:50.032Z,0.10
2022-12-15T14:38:25.467Z,0.28
2022-12-15T14:40:58.026Z,0.36
2022-12-15T14:43:34.943Z,0.28
2022-12-15T14:46:11.224Z,0.39
2022-12-15T14:49:05.905Z,0.18
2022-12-15T14:51:44.032Z,0.24
2022-12-15T14:54:38.535Z,0.19
2022-12-15T14:57:17.034Z,0.03
2022-12-15T14:59:49.395Z,-0.06
2022-12-15T15:02:25.199Z,-0.15
2022-12-15T15:03:04.489Z,0.03
2022-12-15T15:04:59.856Z,-0.46
2022-12-15T15:07:33.098Z,-0.37
2022-12-15T15:10:22.347Z,-0.42
2022-12-15T15:12:54.174Z,-0.49
2022-12-15T15:15:26.781Z,-0.62
2022-12-15T15:17:59.786Z,-0.54
2022-12-15T15:20:36.017Z,-0.54
2022-12-15T15:23:07.296Z,-0.57
2022-12-15T15:26:06.976Z,-0.89
2022-12-15T15:28:43.673Z,-0.79
2022-12-15T15:31:24.447Z,-1.06
2022-12-15T15:33:57.907Z,-1.06
2022-12-15T15:36:33.818Z,-0.99
2022-12-15T15:39:15.843Z,-1.13
2022-12-15T15:41:47.143Z,-1.17
2022-12-15T15:44:18.426Z,-1.31
2022-12-15T15:46:51.973Z,-1.34
2022-12-15T15:49:24.435Z,-1.45
2022-12-15T15:51:56.643Z,-1.51
2022-12-15T15:54:35.202Z,-1.65
2022-12-15T15:57:06.533Z,-1.65
2022-12-15T15:59:42.056Z,-1.66
2022-12-15T16:02:14.456Z,-2.26
2022-12-15T16:04:45.954Z,-1.83
2022-12-15T16:07:25.513Z,-1.93
2022-12-15T16:09:56.956Z,-2.06
2022-12-15T16:12:35.765Z,-1.93
2022-12-15T16:15:18.443Z,-2.24
2022-12-15T16:17:49.952Z,-2.39
2022-12-15T16:20:23.554Z,-2.33
2022-12-15T16:22:59.164Z,-2.21
2022-12-15T16:25:50.297Z,-2.51
2022-12-15T16:28:25.102Z,-2.29
2022-12-15T16:30:58.593Z,-2.54
2022-12-15T16:33:30.041Z,-2.42
2022-12-15T16:36:01.974Z,-2.40
2022-12-15T16:38:33.827Z,-2.48
2022-12-15T16:41:07.938Z,-2.69
2022-12-15T16:43:44.522Z,-2.52
2022-12-15T16:46:20.142Z,-2.66
2022-12-15T16:48:51.846Z,-2.77
2022-12-15T16:51:39.408Z,-2.66
2022-12-15T16:54:20.767Z,-2.73
2022-12-15T16:56:54.064Z,-2.81
2022-12-15T16:59:35.077Z,-2.88
2022-12-15T17:02:35.826Z,-2.86
2022-12-15T17:05:07.709Z,-3.22
2022-12-15T17:07:40.696Z,-3.04
2022-12-15T17:10:25.569Z,-3.13
2022-12-15T17:13:05.838Z,-3.05
2022-12-15T17:15:39.835Z,-3.08
2022-12-15T17:18:15.277Z,-3.03
2022-12-15T17:20:46.925Z,-3.14
2022-12-15T17:23:22.466Z,-3.03
2022-12-15T17:26:21.054Z,-3.07
2022-12-15T17:28:45.266Z,-3.13
2022-12-15T17:31:18.984Z,-3.04
2022-12-15T17:33:50.805Z,-3.28
2022-12-15T17:36:25.072Z,-3.09
2022-12-15T17:38:58.431Z,-3.09
2022-12-15T17:44:36.904Z,-3.46
2022-12-15T17:47:09.564Z,-3.13
2022-12-15T17:49:41.425Z,-3.17
2022-12-15T17:52:34.702Z,-3.31
2022-12-15T17:55:31.790Z,-3.14
2022-12-15T17:58:16.899Z,-3.14
2022-12-15T18:00:52.888Z,-3.21
2022-12-15T18:03:28.151Z,-3.22
2022-12-15T18:05:59.573Z,-3.45
2022-12-15T18:08:33.670Z,-3.27
2022-12-15T18:11:05.177Z,-3.36
2022-12-15T18:13:37.042Z,-3.38
2022-12-15T18:16:08.661Z,-3.48
2022-12-15T18:18:39.984Z,-3.31
2022-12-15T18:21:16.509Z,-3.52
2022-12-15T18:23:47.858Z,-3.36
2022-12-15T18:26:19.260Z,-3.42
2022-12-15T18:28:50.585Z,-3.39
2022-12-15T18:31:27.131Z,-3.45
2022-12-15T18:34:04.292Z,-3.48
2022-12-15T18:36:36.341Z,-3.47
2022-12-15T18:39:18.547Z,-3.54
2022-12-15T18:41:50.728Z,-3.59
2022-12-15T18:44:25.240Z,-3.53
2022-12-15T18:46:56.799Z,-3.51
2022-12-15T18:49:28.281Z,-3.63
2022-12-15T18:51:59.572Z,-3.55
2022-12-15T18:54:30.906Z,-3.62
2022-12-15T18:57:02.254Z,-3.73
2022-12-15T18:59:33.671Z,-3.53
2022-12-15T19:02:05.063Z,-3.60
2022-12-15T19:04:36.479Z,-3.68
2022-12-15T19:07:11.131Z,-3.64
2022-12-15T19:09:42.483Z,-3.64
2022-12-15T19:12:17.648Z,-3.63
2022-12-15T19:14:51.227Z,-3.62
2022-12-15T19:17:42.448Z,-3.60
2022-12-15T19:20:37.469Z,-3.60
2022-12-15T19:23:08.791Z,-3.67
2022-12-15T19:25:41.593Z,-3.58
2022-12-15T19:28:19.521Z,-3.61
2022-12-15T19:30:52.049Z,-3.68
2022-12-15T19:33:24.136Z,-3.64
2022-12-15T19:35:57.356Z,-3.67
2022-12-15T19:38:31.948Z,-3.88
2022-12-15T19:41:03.684Z,-3.67
2022-12-15T19:43:35.751Z,-3.69
2022-12-15T19:46:17.972Z,-3.79
2022-12-15T19:48:49.451Z,-3.69
2022-12-15T19:51:24.094Z,-3.80
2022-12-15T19:53:56.423Z,-3.92
2022-12-15T19:56:29.137Z,-3.97
2022-12-15T19:59:01.475Z,-3.81
2022-12-15T20:01:33.034Z,-3.81
2022-12-15T20:04:05.674Z,-3.78
2022-12-15T20:06:38.415Z,-3.91
2022-12-15T20:09:15.329Z,-3.89
2022-12-15T20:11:46.906Z,-4.13
2022-12-15T20:14:18.316Z,-3.78
2022-12-15T20:16:52.547Z,-3.71
2022-12-15T20:19:23.971Z,-3.66
2022-12-15T20:21:55.354Z,-3.65
2022-12-15T20:24:27.097Z,-3.74
2022-12-15T20:26:58.876Z,-3.67
2022-12-15T20:29:31.869Z,-3.75
2022-12-15T20:32:12.526Z,-3.51
2022-12-15T20:34:44.123Z,-3.64
2022-12-15T20:37:28.977Z,-3.52
2022-12-15T20:40:00.543Z,-3.41
2022-12-15T20:42:32.923Z,-3.36
2022-12-15T20:45:04.906Z,-3.44
2022-12-15T20:47:39.782Z,-3.32
2022-12-15T20:50:41.166Z,-3.24
2022-12-15T20:53:21.258Z,-3.15
2022-12-15T20:55:54.104Z,-3.15
2022-12-15T20:58:31.295Z,-2.96
2022-12-15T21:01:16.814Z,-2.97
2022-12-15T21:03:51.957Z,-2.85
2022-12-15T21:06:25.236Z,-2.97
2022-12-15T21:08:56.902Z,-2.85
2022-12-15T21:11:32.614Z,-2.80
2022-12-15T21:14:04.050Z,-2.76
2022-12-15T21:16:35.547Z,-2.75
2022-12-15T21:19:23.118Z,-2.66
2022-12-15T21:21:55.403Z,-2.59
2022-12-15T21:24:28.563Z,-3.13
2022-12-15T21:27:01.438Z,-2.52
2022-12-15T21:29:34.159Z,-2.76
2022-12-15T21:32:05.651Z,-2.65
2022-12-15T21:34:37.427Z,-2.79
2022-12-15T21:37:23.574Z,-2.88
2022-12-15T21:39:55.607Z,-3.07
2022-12-15T21:42:27.222Z,-3.17
2022-12-15T21:44:58.614Z,-3.24
2022-12-15T21:47:52.032Z,-3.34
2022-12-15T21:50:23.927Z,-3.44
2022-12-15T21:52:55.909Z,-3.51
2022-12-15T21:55:28.487Z,-3.65
2022-12-15T21:57:59.874Z,-3.72
2022-12-15T22:00:31.239Z,-3.97
2022-12-15T22:03:02.698Z,-3.95
2022-12-15T22:05:34.164Z,-3.87
2022-12-15T22:08:35.247Z,-3.76
2022-12-15T22:11:19.743Z,-3.71
2022-12-15T22:13:53.173Z,-3.65
2022-12-15T22:16:27.240Z,-3.89
2022-12-15T22:19:00.826Z,-3.71
2022-12-15T22:21:32.215Z,-3.65
2022-12-15T22:24:03.714Z,-3.63
2022-12-15T22:26:37.528Z,-3.49
2022-12-15T22:29:15.555Z,-3.99
2022-12-15T22:31:48.473Z,-3.35
2022-12-15T22:34:22.853Z,-3.30
2022-12-15T22:36:55.032Z,-3.27
2022-12-15T22:39:26.624Z,-3.26
2022-12-15T22:41:58.752Z,-3.09
2022-12-15T22:44:37.157Z,-2.98
2022-12-15T22:47:10.599Z,-3.00
2022-12-15T22:49:42.509Z,-2.84
2022-12-15T22:52:18.611Z,-2.79
2022-12-15T22:54:50.122Z,-2.72
2022-12-15T22:57:27.050Z,-2.75
2022-12-15T23:00:03.071Z,-2.56
2022-12-15T23:02:38.841Z,-2.51
2022-12-15T23:05:12.789Z,-2.41
2022-12-15T23:07:45.157Z,-2.42
2022-12-15T23:10:37.320Z,-2.42
2022-12-15T23:13:08.700Z,-2.21
2022-12-15T23:15:58.796Z,-2.21
2022-12-15T23:18:30.358Z,-2.12
2022-12-15T23:21:02.490Z,-2.04
2022-12-15T23:23:34.312Z,-1.97
2022-12-15T23:26:06.082Z,-2.07
2022-12-15T23:28:37.994Z,-1.93
2022-12-15T23:31:10.102Z,-1.94
2022-12-15T23:33:41.731Z,-1.80
2022-12-15T23:36:13.443Z,-1.74
2022-12-15T23:38:44.913Z,-1.92
2022-12-15T23:41:17.634Z,-1.77
2022-12-15T23:43:49.096Z,-1.71
2022-12-15T23:46:21.182Z,-1.71
2022-12-15T23:48:52.589Z,-1.62
2022-12-15T23:51:26.528Z,-1.63
2022-12-15T23:53:57.908Z,-1.61
2022-12-15T23:56:30.331Z,-1.56
2022-12-15T23:59:01.806Z,-1.51
